This is the latest recevied weather packets stored in our database for station/object EA6MW-10. If no packets are shown the sender has not sent any weather packets the latest 10 day(s).
| Time | Temp. | Humidity | Pressure | Rain* | Wind** | Luminosity | Snow |
|---|---|---|---|---|---|---|---|
| 1777936146 | 16.11° C | 83% | 1014.3 hPa | - | - | - | - |
| 1777935246 | 16.11° C | 85% | 1014.2 hPa | - | - | - | - |
| 1777933446 | 16.11° C | 85% | 1014.3 hPa | - | - | - | - |
| 1777932546 | 16.11° C | 85% | 1014.4 hPa | - | - | - | - |
| 1777931645 | 17.22° C | 80% | 1014.4 hPa | - | - | - | - |
| 1777930745 | 16.67° C | 81% | 1014.4 hPa | - | - | - | - |
| 1777929844 | 17.22° C | 79% | 1014.2 hPa | - | - | - | - |
| 1777928944 | 17.22° C | 77% | 1014.3 hPa | - | - | - | - |
| 1777928044 | 17.78° C | 78% | 1014.2 hPa | - | - | - | - |
| 1777927143 | 17.22° C | 79% | 1014 hPa | - | - | - | - |
| 1777926243 | 17.22° C | 80% | 1013.8 hPa | - | - | - | - |
| 1777925343 | 17.22° C | 80% | 1013.6 hPa | - | - | - | - |
| 1777924443 | 17.78° C | 78% | 1013.5 hPa | - | - | - | - |
| 1777923542 | 17.78° C | 78% | 1013.3 hPa | - | - | - | - |
| 1777922642 | 17.78° C | 75% | 1013.1 hPa | - | - | - | - |
| 1777921742 | 18.33° C | 72% | 1012.9 hPa | - | - | - | - |
| 1777920842 | 18.33° C | 72% | 1012.7 hPa | - | - | - | - |
| 1777919941 | 18.33° C | 73% | 1012.7 hPa | - | - | - | - |
| 1777919041 | 18.33° C | 73% | 1012.5 hPa | - | - | - | - |
| 1777917241 | 20° C | 70% | 1012.3 hPa | - | - | - | - |
| 1777916340 | 20.56° C | 68% | 1012.4 hPa | - | - | - | - |
| 1777915440 | 20.56° C | 69% | 1012.6 hPa | - | - | - | - |
| 1777914540 | 20° C | 71% | 1012.6 hPa | - | - | - | - |
| 1777913640 | 19.44° C | 72% | 1012.5 hPa | - | - | - | - |
| 1777912740 | 20° C | 72% | 1012.2 hPa | - | - | - | - |
* Rain since midnight (hover to see other rain measurements)
** Current wind speed in m/s (hover to see current wind gust speed)